createdAt,value
2018-03-16T00:00:35.178Z,85.68
2018-03-16T00:01:35.431Z,86.16
2018-03-16T00:02:35.680Z,86.54
2018-03-16T00:03:35.929Z,86.54
2018-03-16T00:04:36.180Z,86.44
2018-03-16T00:05:36.418Z,86.44
2018-03-16T00:06:36.666Z,86.91
2018-03-16T00:07:36.917Z,87.58
2018-03-16T00:08:37.168Z,87.30
2018-03-16T00:09:37.417Z,87.30
2018-03-16T00:10:37.668Z,87.30
2018-03-16T00:11:37.922Z,87.77
2018-03-16T00:12:38.172Z,87.77
2018-03-16T00:13:38.424Z,87.49
2018-03-16T00:14:38.673Z,87.39
2018-03-16T00:15:38.927Z,87.39
2018-03-16T00:16:39.176Z,88.24
2018-03-16T00:17:39.427Z,88.06
2018-03-16T00:18:39.678Z,88.43
2018-03-16T00:19:39.930Z,88.24
2018-03-16T00:20:40.176Z,88.24
2018-03-16T00:21:40.429Z,88.91
2018-03-16T00:22:40.677Z,88.62
2018-03-16T00:23:40.925Z,88.62
2018-03-16T00:24:41.174Z,88.62
2018-03-16T00:25:41.432Z,88.34
2018-03-16T00:26:41.679Z,89.10
2018-03-16T00:27:41.935Z,88.53
2018-03-16T00:28:42.185Z,89.29
2018-03-16T00:29:42.435Z,89.20
2018-03-16T00:30:42.699Z,89.29
2018-03-16T00:31:42.957Z,89.67
2018-03-16T00:32:43.172Z,90.33
2018-03-16T00:33:43.424Z,89.39
2018-03-16T00:34:43.677Z,89.29
2018-03-16T00:35:43.922Z,89.10
2018-03-16T00:36:44.176Z,89.29
2018-03-16T00:37:44.427Z,89.29
2018-03-16T00:38:44.674Z,89.10
2018-03-16T00:39:44.923Z,90.05
2018-03-16T00:40:45.170Z,89.67
2018-03-16T00:41:45.423Z,89.86
2018-03-16T00:42:45.677Z,89.76
2018-03-16T00:43:45.924Z,90.52
2018-03-16T00:44:46.177Z,89.58
2018-03-16T00:45:46.421Z,90.05
2018-03-16T00:46:46.672Z,89.58
2018-03-16T00:47:46.922Z,89.76
2018-03-16T00:48:47.169Z,90.33
2018-03-16T00:49:47.420Z,90.43
2018-03-16T00:50:47.672Z,90.14
2018-03-16T00:51:47.913Z,90.33
2018-03-16T00:52:48.163Z,90.52
2018-03-16T00:53:48.415Z,90.52
2018-03-16T00:54:48.663Z,90.52
2018-03-16T00:55:48.916Z,89.67
2018-03-16T00:56:49.175Z,90.05
2018-03-16T00:57:49.421Z,90.19
2018-03-16T00:58:49.669Z,89.62
2018-03-16T00:59:49.921Z,90.29
2018-03-16T01:00:50.170Z,90.29
2018-03-16T01:01:50.421Z,90.19
2018-03-16T01:02:50.668Z,90.48
2018-03-16T01:03:50.909Z,90.76
2018-03-16T01:04:51.169Z,90.95
2018-03-16T01:05:51.423Z,90.29
2018-03-16T01:06:51.673Z,90.19
2018-03-16T01:07:51.925Z,91.05
2018-03-16T01:08:52.171Z,90.57
2018-03-16T01:09:52.439Z,90.95
2018-03-16T01:10:52.667Z,90.67
2018-03-16T01:11:52.914Z,91.80
2018-03-16T01:12:53.158Z,91.61
2018-03-16T01:13:53.406Z,91.52
2018-03-16T01:14:53.648Z,91.42
2018-03-16T01:15:53.896Z,91.05
2018-03-16T01:16:54.143Z,90.67
2018-03-16T01:17:54.404Z,90.38
2018-03-16T01:18:54.650Z,90.95
2018-03-16T01:19:54.900Z,90.76
2018-03-16T01:20:55.146Z,91.33
2018-03-16T01:21:55.406Z,91.71
2018-03-16T01:22:55.653Z,91.52
2018-03-16T01:23:55.893Z,91.52
2018-03-16T01:24:56.138Z,91.42
2018-03-16T01:25:56.378Z,91.24
2018-03-16T01:26:56.643Z,90.86
2018-03-16T01:27:56.898Z,91.80
2018-03-16T01:28:57.150Z,91.52
2018-03-16T01:29:57.407Z,91.80
2018-03-16T01:30:57.638Z,91.90
2018-03-16T01:31:57.879Z,91.90
2018-03-16T01:32:58.116Z,91.71
2018-03-16T01:33:58.375Z,91.90
2018-03-16T01:34:58.626Z,91.80
2018-03-16T01:35:58.877Z,92.18
2018-03-16T01:36:59.137Z,91.90
2018-03-16T01:37:59.355Z,91.99
2018-03-16T01:38:59.597Z,92.28
2018-03-16T01:39:59.858Z,90.76
2018-03-16T01:41:00.095Z,91.05
2018-03-16T01:42:00.338Z,90.76
2018-03-16T01:43:00.594Z,91.05
2018-03-16T01:44:00.837Z,91.71
2018-03-16T01:45:01.080Z,91.33
2018-03-16T01:46:01.344Z,91.52
2018-03-16T01:47:01.585Z,92.09
2018-03-16T01:48:01.833Z,91.99
2018-03-16T01:49:02.084Z,91.42
2018-03-16T01:50:02.321Z,91.80
2018-03-16T01:51:02.603Z,92.18
2018-03-16T01:52:02.820Z,91.99
2018-03-16T01:53:03.063Z,92.47
2018-03-16T01:54:03.303Z,92.28
2018-03-16T01:55:03.553Z,91.99
2018-03-16T01:56:03.790Z,92.18
2018-03-16T01:57:04.032Z,91.90
2018-03-16T01:58:04.269Z,92.57
2018-03-16T01:59:04.518Z,92.38
2018-03-16T02:00:04.773Z,92.28
2018-03-16T02:01:05.010Z,92.09
2018-03-16T02:02:05.266Z,92.38
2018-03-16T02:03:05.510Z,92.09
2018-03-16T02:04:05.748Z,92.47
2018-03-16T02:05:05.981Z,92.57
2018-03-16T02:06:06.227Z,92.47
2018-03-16T02:07:06.482Z,92.57
2018-03-16T02:08:06.724Z,92.47
2018-03-16T02:09:06.982Z,92.94
2018-03-16T02:10:07.223Z,93.23
2018-03-16T02:11:07.472Z,93.23
2018-03-16T02:12:07.711Z,92.47
2018-03-16T02:13:07.955Z,92.47
2018-03-16T02:14:08.194Z,92.85
2018-03-16T02:15:08.450Z,92.66
2018-03-16T02:16:08.688Z,91.90
2018-03-16T02:17:08.936Z,91.90
2018-03-16T02:18:09.195Z,91.80
2018-03-16T02:19:09.420Z,90.62
2018-03-16T02:20:09.662Z,91.09
2018-03-16T02:21:09.925Z,91.00
2018-03-16T02:22:10.152Z,91.38
2018-03-16T02:23:10.395Z,91.19
2018-03-16T02:24:10.638Z,91.38
2018-03-16T02:25:10.896Z,91.85
2018-03-16T02:26:11.131Z,91.76
2018-03-16T02:27:11.379Z,92.61
2018-03-16T02:28:11.616Z,92.33
2018-03-16T02:29:11.866Z,92.42
2018-03-16T02:30:12.100Z,91.95
2018-03-16T02:31:12.350Z,91.57
2018-03-16T02:32:12.581Z,91.76
2018-03-16T02:33:12.827Z,91.57
2018-03-16T02:34:13.091Z,92.04
2018-03-16T02:35:13.337Z,91.85
2018-03-16T02:36:13.569Z,92.04
2018-03-16T02:37:13.813Z,92.42
2018-03-16T02:38:14.069Z,92.14
2018-03-16T02:39:14.301Z,91.57
2018-03-16T02:40:14.558Z,91.19
2018-03-16T02:41:14.790Z,91.38
2018-03-16T02:42:15.035Z,91.57
2018-03-16T02:43:15.299Z,91.76
2018-03-16T02:44:15.547Z,91.66
2018-03-16T02:45:15.824Z,92.23
2018-03-16T02:46:16.061Z,91.95
2018-03-16T02:47:16.292Z,92.42
2018-03-16T02:48:16.534Z,92.52
2018-03-16T02:49:16.778Z,92.42
2018-03-16T02:50:17.057Z,91.85
2018-03-16T02:51:17.301Z,91.85
2018-03-16T02:52:17.547Z,92.52
2018-03-16T02:53:17.790Z,91.95
2018-03-16T02:54:18.041Z,91.76
2018-03-16T02:55:18.283Z,90.53
2018-03-16T02:56:18.524Z,90.91
2018-03-16T02:57:18.775Z,91.19
2018-03-16T02:58:19.036Z,91.09
2018-03-16T02:59:19.288Z,91.76
2018-03-16T03:00:19.511Z,91.95
2018-03-16T03:01:19.759Z,92.04
2018-03-16T03:02:20.030Z,92.14
2018-03-16T03:03:20.284Z,92.99
2018-03-16T03:04:20.541Z,92.42
2018-03-16T03:05:20.761Z,92.33
2018-03-16T03:06:21.023Z,92.42
2018-03-16T03:07:21.267Z,91.76
2018-03-16T03:08:21.493Z,91.76
2018-03-16T03:09:21.754Z,91.85
2018-03-16T03:10:21.989Z,91.95
2018-03-16T03:11:22.223Z,92.14
2018-03-16T03:12:22.472Z,92.52
2018-03-16T03:13:22.728Z,93.18
2018-03-16T03:14:22.977Z,92.52
2018-03-16T03:15:23.225Z,92.14
2018-03-16T03:16:23.489Z,92.04
2018-03-16T03:17:23.730Z,91.66
2018-03-16T03:18:23.973Z,91.95
2018-03-16T03:19:24.208Z,91.47
2018-03-16T03:20:24.460Z,91.47
2018-03-16T03:21:24.696Z,91.57
2018-03-16T03:22:24.943Z,91.85
2018-03-16T03:23:25.176Z,92.42
2018-03-16T03:24:25.428Z,91.85
2018-03-16T03:25:25.673Z,92.52
2018-03-16T03:26:25.918Z,92.61
2018-03-16T03:27:26.156Z,92.52
2018-03-16T03:28:26.424Z,92.47
2018-03-16T03:29:26.646Z,93.08
2018-03-16T03:30:26.885Z,92.99
2018-03-16T03:31:27.130Z,92.99
2018-03-16T03:32:27.364Z,92.61
2018-03-16T03:33:27.616Z,93.18
2018-03-16T03:34:27.851Z,92.23
2018-03-16T03:35:28.087Z,92.52
2018-03-16T03:37:59.935Z,92.04
2018-03-16T03:39:00.186Z,91.85
2018-03-16T03:40:00.430Z,92.04
2018-03-16T03:41:00.680Z,92.42
2018-03-16T03:42:00.930Z,91.85
2018-03-16T03:43:01.172Z,92.04
2018-03-16T03:44:01.427Z,92.14
2018-03-16T03:45:01.666Z,92.33
2018-03-16T03:46:01.924Z,92.47
2018-03-16T03:47:02.174Z,92.52
2018-03-16T03:48:02.425Z,93.08
2018-03-16T03:49:02.671Z,92.61
2018-03-16T03:50:02.922Z,92.52
2018-03-16T03:51:03.174Z,92.09
2018-03-16T03:52:03.422Z,92.09
2018-03-16T03:53:03.674Z,91.05
2018-03-16T03:54:03.921Z,91.52
2018-03-16T03:55:04.168Z,92.09
2018-03-16T03:56:04.420Z,92.47
2018-03-16T03:57:04.666Z,92.85
2018-03-16T03:58:04.920Z,93.13
2018-03-16T03:59:05.168Z,93.32
2018-03-16T04:00:05.428Z,92.94
2018-03-16T04:01:05.674Z,92.57
2018-03-16T04:02:05.927Z,92.47
2018-03-16T04:03:06.177Z,92.38
2018-03-16T04:04:06.422Z,92.19
2018-03-16T04:05:06.670Z,92.09
2018-03-16T04:06:06.925Z,92.09
2018-03-16T04:07:07.176Z,92.00
2018-03-16T04:08:07.436Z,91.81
2018-03-16T04:09:07.665Z,91.90
2018-03-16T04:10:07.916Z,92.19
2018-03-16T04:11:08.158Z,92.76
2018-03-16T04:12:08.413Z,92.38
2018-03-16T04:13:08.658Z,92.94
2018-03-16T04:14:08.910Z,92.47
2018-03-16T04:15:09.156Z,91.90
2018-03-16T04:16:09.406Z,92.00
2018-03-16T04:17:09.656Z,92.47
2018-03-16T04:18:09.909Z,92.76
2018-03-16T04:19:10.158Z,92.94
2018-03-16T04:20:10.407Z,92.47
2018-03-16T04:21:10.656Z,92.09
2018-03-16T04:22:10.904Z,92.57
2018-03-16T04:23:11.147Z,92.57
2018-03-16T04:24:11.401Z,92.47
2018-03-16T04:25:11.648Z,93.13
2018-03-16T04:26:11.898Z,92.94
2018-03-16T04:27:12.144Z,92.57
2018-03-16T04:28:12.410Z,92.94
2018-03-16T04:29:12.640Z,93.13
2018-03-16T04:30:12.890Z,92.76
2018-03-16T04:31:13.138Z,92.57
2018-03-16T04:32:13.388Z,92.66
2018-03-16T04:33:13.642Z,92.94
2018-03-16T04:34:13.887Z,92.94
2018-03-16T04:35:14.146Z,93.13
2018-03-16T04:36:14.393Z,92.94
2018-03-16T04:37:14.641Z,92.94
2018-03-16T04:38:14.890Z,92.85
2018-03-16T04:39:15.136Z,92.57
2018-03-16T04:40:15.388Z,92.76
2018-03-16T04:41:15.639Z,92.66
2018-03-16T04:42:15.889Z,93.70
2018-03-16T04:43:16.140Z,92.94
2018-03-16T04:44:16.395Z,92.94
2018-03-16T04:45:16.641Z,92.94
2018-03-16T04:46:16.892Z,92.85
2018-03-16T04:47:17.142Z,93.04
2018-03-16T04:48:17.395Z,92.85
2018-03-16T04:49:17.642Z,92.66
2018-03-16T04:50:17.895Z,92.57
2018-03-16T04:51:18.146Z,92.57
2018-03-16T04:52:18.394Z,92.19
2018-03-16T04:53:18.639Z,92.19
2018-03-16T04:54:18.899Z,92.19
2018-03-16T04:55:19.148Z,92.57
2018-03-16T04:56:19.401Z,92.47
2018-03-16T04:57:19.638Z,92.09
2018-03-16T04:58:19.884Z,92.47
2018-03-16T04:59:20.138Z,92.57
2018-03-16T05:00:20.390Z,92.28
2018-03-16T05:01:20.639Z,92.28
2018-03-16T05:02:20.893Z,92.38
2018-03-16T05:03:21.141Z,92.57
2018-03-16T05:04:21.389Z,92.09
2018-03-16T05:05:21.644Z,92.47
2018-03-16T05:06:21.897Z,91.81
2018-03-16T05:07:22.145Z,92.57
2018-03-16T05:08:22.398Z,93.04
2018-03-16T05:09:22.647Z,92.94
2018-03-16T05:10:22.896Z,92.47
2018-03-16T05:11:23.147Z,92.47
2018-03-16T05:12:23.399Z,93.13
2018-03-16T05:13:23.655Z,93.13
2018-03-16T05:14:23.906Z,92.85
2018-03-16T05:15:24.158Z,92.38
2018-03-16T05:16:24.411Z,92.57
2018-03-16T05:17:24.658Z,92.38
2018-03-16T05:18:24.911Z,92.94
2018-03-16T05:19:25.158Z,93.04
2018-03-16T05:20:25.404Z,92.94
2018-03-16T05:21:25.649Z,92.76
2018-03-16T05:22:25.893Z,92.76
2018-03-16T05:23:26.142Z,92.85
2018-03-16T05:24:26.400Z,93.51
2018-03-16T05:25:26.667Z,93.23
2018-03-16T05:26:26.911Z,93.32
2018-03-16T05:27:27.167Z,93.32
2018-03-16T05:28:27.413Z,93.42
2018-03-16T05:29:27.668Z,93.51
2018-03-16T05:30:27.916Z,93.70
2018-03-16T05:31:28.172Z,93.32
2018-03-16T05:32:28.431Z,93.51
2018-03-16T05:33:28.675Z,93.70
2018-03-16T05:34:28.926Z,93.42
2018-03-16T05:35:29.174Z,93.32
2018-03-16T05:36:29.438Z,93.51
2018-03-16T05:37:29.689Z,93.51
2018-03-16T05:38:29.947Z,93.04
2018-03-16T05:39:30.186Z,93.42
2018-03-16T05:40:30.435Z,93.70
2018-03-16T05:41:30.690Z,93.32
2018-03-16T05:42:30.939Z,93.42
2018-03-16T05:43:31.186Z,93.23
2018-03-16T05:44:31.439Z,93.80
2018-03-16T05:45:31.708Z,93.32
2018-03-16T05:46:31.938Z,93.61
2018-03-16T05:47:32.193Z,93.70
2018-03-16T05:48:32.442Z,93.80
2018-03-16T05:49:32.692Z,93.42
2018-03-16T05:50:32.945Z,93.51
2018-03-16T05:51:33.193Z,93.89
2018-03-16T05:52:33.440Z,93.99
2018-03-16T05:53:33.697Z,93.51
2018-03-16T05:54:33.940Z,93.61
2018-03-16T05:55:34.194Z,93.70
2018-03-16T05:56:34.445Z,93.89
2018-03-16T05:57:34.693Z,94.27
2018-03-16T05:58:34.944Z,94.08
2018-03-16T05:59:35.193Z,93.89
2018-03-16T06:00:35.444Z,93.70
2018-03-16T06:01:35.698Z,93.61
2018-03-16T06:02:35.949Z,93.32
2018-03-16T06:03:36.201Z,93.13
2018-03-16T06:04:36.456Z,93.51
2018-03-16T06:05:36.698Z,93.13
2018-03-16T06:06:36.962Z,93.32
2018-03-16T06:07:37.212Z,93.42
2018-03-16T06:08:37.453Z,93.51
2018-03-16T06:09:37.708Z,92.57
2018-03-16T06:10:37.958Z,93.51
2018-03-16T06:11:38.196Z,93.42
2018-03-16T06:12:38.445Z,93.51
2018-03-16T06:13:38.691Z,93.13
2018-03-16T06:14:38.943Z,93.23
2018-03-16T06:15:39.193Z,93.32
2018-03-16T06:16:39.445Z,93.32
2018-03-16T06:17:39.690Z,93.51
2018-03-16T06:18:39.944Z,93.13
2018-03-16T06:19:40.194Z,93.23
2018-03-16T06:20:40.434Z,93.32
2018-03-16T06:21:40.681Z,93.70
2018-03-16T06:22:40.930Z,93.89
2018-03-16T06:23:41.171Z,93.32
2018-03-16T06:24:41.427Z,93.32
2018-03-16T06:25:41.682Z,93.23
2018-03-16T06:26:41.936Z,93.32
2018-03-16T06:27:42.189Z,93.32
2018-03-16T06:28:42.440Z,93.51
2018-03-16T06:29:42.690Z,93.51
2018-03-16T06:30:42.942Z,93.51
2018-03-16T06:31:43.192Z,93.23
2018-03-16T06:32:43.503Z,93.32
2018-03-16T06:35:16.871Z,93.23
2018-03-16T06:36:17.128Z,93.61
2018-03-16T06:37:17.368Z,93.51
2018-03-16T06:38:17.600Z,93.51
2018-03-16T06:39:17.933Z,93.51
2018-03-16T06:40:18.119Z,93.70
2018-03-16T06:41:18.373Z,93.32
2018-03-16T06:42:18.623Z,93.23
2018-03-16T06:43:18.877Z,93.42
2018-03-16T06:44:19.138Z,93.42
2018-03-16T06:45:19.413Z,92.85
2018-03-16T06:46:19.664Z,92.85
2018-03-16T06:47:19.914Z,92.85
2018-03-16T06:48:20.164Z,92.57
2018-03-16T06:49:20.417Z,92.76
2018-03-16T06:50:20.668Z,93.42
2018-03-16T06:51:20.917Z,93.23
2018-03-16T06:52:21.171Z,93.04
2018-03-16T06:53:21.421Z,93.04
2018-03-16T06:54:21.685Z,92.57
2018-03-16T06:55:21.942Z,93.61
2018-03-16T06:56:22.193Z,93.13
2018-03-16T06:57:22.450Z,93.23
2018-03-16T06:58:22.704Z,93.61
2018-03-16T06:59:22.958Z,92.85
2018-03-16T07:00:23.206Z,92.94
2018-03-16T07:01:23.455Z,92.76
2018-03-16T07:02:23.706Z,92.94
2018-03-16T07:03:23.956Z,92.66
2018-03-16T07:04:24.204Z,93.04
2018-03-16T07:05:24.478Z,93.32
2018-03-16T07:06:24.732Z,92.85
2018-03-16T07:07:24.989Z,93.04
2018-03-16T07:08:25.238Z,92.66
2018-03-16T07:09:25.491Z,92.85
2018-03-16T07:10:25.747Z,92.85
2018-03-16T07:11:25.996Z,93.23
2018-03-16T07:12:26.253Z,92.85
2018-03-16T07:13:26.498Z,92.76
2018-03-16T07:14:26.750Z,92.85
2018-03-16T07:15:27.001Z,92.76
2018-03-16T07:16:27.264Z,92.85
2018-03-16T07:17:27.504Z,92.66
2018-03-16T07:18:27.761Z,92.66
2018-03-16T07:19:28.011Z,92.76
2018-03-16T07:20:28.260Z,92.94
2018-03-16T07:21:28.522Z,92.85
2018-03-16T07:22:28.762Z,92.94
2018-03-16T07:23:29.023Z,92.76
2018-03-16T07:24:29.273Z,92.94
2018-03-16T07:25:29.525Z,93.32
2018-03-16T07:26:29.777Z,93.32
2018-03-16T07:27:30.023Z,93.42
2018-03-16T07:28:30.276Z,93.61
2018-03-16T07:29:30.526Z,93.42
2018-03-16T07:30:30.780Z,93.13
2018-03-16T07:31:31.028Z,92.66
2018-03-16T07:32:31.282Z,92.66
2018-03-16T07:33:31.537Z,93.51
2018-03-16T07:34:31.804Z,93.42
2018-03-16T07:35:32.037Z,93.51
2018-03-16T07:36:32.288Z,93.42
2018-03-16T07:37:32.541Z,93.23
2018-03-16T07:38:32.795Z,93.51
2018-03-16T07:39:33.046Z,93.51
2018-03-16T07:40:33.301Z,93.32
2018-03-16T07:41:33.545Z,93.51
2018-03-16T07:42:33.803Z,93.51
2018-03-16T07:43:34.049Z,93.13
2018-03-16T07:44:34.296Z,93.32
2018-03-16T07:45:34.543Z,92.66
2018-03-16T07:46:34.795Z,93.04
2018-03-16T07:47:35.052Z,93.04
2018-03-16T07:48:35.303Z,92.76
2018-03-16T07:49:35.546Z,92.94
2018-03-16T07:50:36.405Z,92.85
2018-03-16T07:51:36.195Z,92.94
2018-03-16T07:52:36.427Z,92.76
2018-03-16T07:53:36.673Z,92.76
2018-03-16T07:54:37.008Z,93.04
2018-03-16T07:55:37.179Z,92.47
2018-03-16T07:56:37.438Z,91.90
2018-03-16T07:57:37.654Z,92.19
2018-03-16T07:58:37.891Z,92.00
2018-03-16T07:59:38.142Z,92.19
2018-03-16T08:00:38.381Z,92.57
2018-03-16T08:01:38.629Z,92.52
2018-03-16T08:02:38.873Z,91.85
2018-03-16T08:03:39.110Z,91.95
2018-03-16T08:04:39.372Z,92.23
2018-03-16T08:05:39.626Z,92.42
2018-03-16T08:06:39.843Z,92.52
2018-03-16T08:07:40.111Z,91.66
2018-03-16T08:08:40.359Z,92.61
2018-03-16T08:09:40.611Z,92.52
2018-03-16T08:10:40.870Z,91.76
2018-03-16T08:11:41.124Z,91.85
2018-03-16T08:12:41.379Z,92.04
2018-03-16T08:13:41.631Z,92.04
2018-03-16T08:14:41.896Z,92.04
2018-03-16T08:15:42.148Z,91.85
2018-03-16T08:16:42.405Z,91.76
2018-03-16T08:17:42.658Z,91.85
2018-03-16T08:18:42.912Z,92.80
2018-03-16T08:19:43.164Z,91.95
2018-03-16T08:20:43.422Z,91.85
2018-03-16T08:21:43.670Z,92.04
2018-03-16T08:22:43.930Z,91.66
2018-03-16T08:23:44.185Z,91.00
2018-03-16T08:24:44.440Z,91.57
2018-03-16T08:25:44.696Z,91.19
2018-03-16T08:26:44.950Z,91.28
2018-03-16T08:27:45.223Z,91.47
2018-03-16T08:28:45.459Z,91.47
2018-03-16T08:29:45.714Z,90.91
2018-03-16T08:30:45.971Z,90.72
2018-03-16T08:31:46.229Z,91.00
2018-03-16T08:32:46.486Z,90.91
2018-03-16T08:33:46.737Z,90.81
2018-03-16T08:34:46.986Z,90.53
2018-03-16T08:35:47.243Z,90.24
2018-03-16T08:36:47.487Z,89.43
2018-03-16T08:37:47.744Z,90.00
2018-03-16T08:38:47.995Z,90.57
2018-03-16T08:39:48.245Z,90.29
2018-03-16T08:40:48.519Z,90.38
2018-03-16T08:41:48.776Z,90.48
2018-03-16T08:42:49.024Z,90.38
2018-03-16T08:43:49.291Z,90.29
2018-03-16T08:44:49.518Z,90.38
2018-03-16T08:45:49.765Z,90.67
2018-03-16T08:46:50.017Z,89.91
2018-03-16T08:47:50.274Z,90.38
2018-03-16T08:48:50.517Z,90.48
2018-03-16T08:49:50.763Z,90.57
2018-03-16T08:50:51.009Z,91.05
2018-03-16T08:51:51.286Z,90.95
2018-03-16T08:52:51.539Z,90.48
2018-03-16T08:53:52.051Z,90.29
2018-03-16T08:54:52.197Z,90.38
2018-03-16T08:55:52.360Z,90.19
2018-03-16T08:56:52.597Z,89.43
2018-03-16T08:57:53.610Z,90.00
2018-03-16T08:58:53.314Z,89.91
2018-03-16T08:59:53.497Z,90.19
2018-03-16T09:00:53.735Z,90.86
2018-03-16T09:01:55.047Z,91.14
2018-03-16T09:02:54.346Z,90.38
2018-03-16T09:03:54.564Z,90.48
2018-03-16T09:04:54.795Z,90.57
2018-03-16T09:05:55.071Z,90.29
2018-03-16T09:06:55.456Z,89.91
2018-03-16T09:07:55.683Z,88.77
2018-03-16T09:08:55.895Z,88.29
2018-03-16T09:09:56.114Z,88.87
2018-03-16T09:10:56.369Z,89.43
2018-03-16T09:11:56.621Z,90.10
2018-03-16T09:12:56.870Z,90.00
2018-03-16T09:13:57.118Z,90.00
2018-03-16T09:14:59.196Z,90.00
2018-03-16T09:15:57.845Z,90.57
2018-03-16T09:16:58.211Z,90.57
2018-03-16T09:17:58.291Z,90.57
2018-03-16T09:18:58.656Z,89.72
2018-03-16T09:19:58.763Z,88.87
2018-03-16T09:20:59.031Z,89.15
2018-03-16T09:21:59.465Z,89.25
2018-03-16T09:22:59.571Z,89.81
2018-03-16T09:23:59.806Z,89.72
2018-03-16T09:25:00.015Z,90.57
2018-03-16T09:26:00.258Z,90.95
2018-03-16T09:27:00.524Z,90.86
2018-03-16T09:28:01.485Z,90.48
2018-03-16T09:29:01.049Z,89.81
2018-03-16T09:30:01.289Z,89.06
2018-03-16T09:31:01.498Z,88.68
2018-03-16T09:32:01.744Z,88.68
2018-03-16T09:33:02.943Z,88.20
2018-03-16T09:34:02.284Z,89.25
2018-03-16T09:35:02.706Z,89.91
2018-03-16T09:36:02.839Z,90.19
2018-03-16T09:37:03.151Z,90.00
2018-03-16T09:38:03.435Z,89.25
2018-03-16T09:39:03.522Z,88.39
2018-03-16T09:40:03.781Z,88.68
2018-03-16T09:41:04.021Z,88.77
2018-03-16T09:42:04.266Z,89.25
2018-03-16T09:43:05.633Z,89.25
2018-03-16T09:44:04.901Z,90.19
2018-03-16T09:45:05.289Z,90.57
2018-03-16T09:46:05.391Z,91.05
2018-03-16T09:47:05.597Z,89.72
2018-03-16T09:48:05.974Z,88.77
2018-03-16T09:49:06.154Z,89.06
2018-03-16T09:50:06.388Z,89.25
2018-03-16T09:51:06.603Z,89.06
2018-03-16T09:52:06.829Z,89.53
2018-03-16T09:53:07.210Z,89.72
2018-03-16T09:54:07.372Z,90.00
2018-03-16T09:55:07.646Z,89.72
2018-03-16T09:56:08.087Z,89.25
2018-03-16T09:57:08.204Z,90.10
2018-03-16T09:58:08.539Z,88.58
2018-03-16T09:59:08.717Z,88.96
2018-03-16T10:00:08.931Z,89.01
2018-03-16T10:01:09.152Z,88.73
2018-03-16T10:02:09.416Z,89.20
2018-03-16T10:03:09.662Z,89.11
2018-03-16T10:04:09.914Z,89.67
2018-03-16T10:05:10.163Z,90.10
2018-03-16T10:06:10.423Z,90.38
2018-03-16T10:07:10.656Z,90.86
2018-03-16T10:08:10.937Z,90.76
2018-03-16T10:09:11.146Z,90.10
2018-03-16T10:10:11.393Z,90.19
2018-03-16T10:11:11.630Z,89.34
2018-03-16T10:12:11.952Z,89.25
2018-03-16T10:13:12.186Z,90.19
2018-03-16T10:14:12.631Z,90.86
2018-03-16T10:15:12.628Z,90.10
2018-03-16T10:16:12.846Z,88.77
2018-03-16T10:17:13.086Z,88.96
2018-03-16T10:18:13.330Z,89.39
2018-03-16T10:19:13.583Z,89.72
2018-03-16T10:20:13.840Z,89.72
2018-03-16T10:21:14.087Z,89.72
2018-03-16T10:22:14.322Z,90.57
2018-03-16T10:23:14.579Z,90.57
2018-03-16T10:24:14.831Z,89.06
2018-03-16T10:25:15.087Z,89.25
2018-03-16T10:26:15.350Z,90.10
2018-03-16T10:27:15.606Z,90.10
2018-03-16T10:28:15.853Z,90.10
2018-03-16T10:29:16.105Z,89.25
2018-03-16T10:30:16.354Z,89.25
2018-03-16T10:31:16.620Z,90.00
2018-03-16T10:32:16.867Z,89.62
2018-03-16T10:33:17.114Z,89.06
2018-03-16T10:34:17.369Z,89.25
2018-03-16T10:35:17.611Z,88.87
2018-03-16T10:36:17.861Z,88.48
2018-03-16T10:37:18.115Z,88.73
2018-03-16T10:38:18.383Z,89.29
2018-03-16T10:39:18.660Z,89.11
2018-03-16T10:40:18.879Z,89.06
2018-03-16T10:41:19.103Z,89.77
2018-03-16T10:42:19.356Z,89.39
2018-03-16T10:43:19.618Z,90.19
2018-03-16T10:44:19.848Z,89.91
2018-03-16T10:45:20.100Z,90.57
2018-03-16T10:46:20.363Z,90.38
2018-03-16T10:47:20.606Z,90.95
2018-03-16T10:48:20.852Z,90.29
2018-03-16T10:49:21.122Z,89.43
2018-03-16T10:50:21.369Z,89.91
2018-03-16T10:51:21.623Z,90.57
2018-03-16T10:52:21.874Z,90.00
2018-03-16T10:53:22.127Z,90.19
2018-03-16T10:54:22.388Z,90.57
2018-03-16T10:55:22.637Z,90.10
2018-03-16T10:56:22.884Z,90.10
2018-03-16T10:57:23.142Z,89.81
2018-03-16T10:58:23.397Z,90.38
2018-03-16T10:59:23.634Z,90.95
2018-03-16T11:00:23.886Z,89.81
2018-03-16T11:01:24.134Z,88.96
2018-03-16T11:02:24.386Z,89.15
2018-03-16T11:03:24.640Z,89.25
2018-03-16T11:04:24.892Z,89.15
2018-03-16T11:05:25.136Z,88.73
2018-03-16T11:06:25.379Z,89.96
2018-03-16T11:07:25.628Z,90.38
2018-03-16T11:08:25.883Z,90.95
2018-03-16T11:09:26.142Z,91.61
2018-03-16T11:10:26.390Z,91.42
2018-03-16T11:11:26.642Z,91.33
2018-03-16T11:12:27.854Z,90.29
2018-03-16T11:13:27.188Z,88.87
2018-03-16T11:14:27.415Z,88.39
2018-03-16T11:15:27.670Z,88.87
2018-03-16T11:16:27.908Z,88.87
2018-03-16T11:17:28.163Z,89.43
2018-03-16T11:18:28.415Z,90.48
2018-03-16T11:19:28.650Z,91.05
2018-03-16T11:20:28.895Z,90.76
2018-03-16T11:21:29.153Z,91.52
2018-03-16T11:22:29.411Z,90.95
2018-03-16T11:23:29.679Z,90.57
2018-03-16T11:24:29.918Z,90.10
2018-03-16T11:25:30.162Z,90.38
2018-03-16T11:26:30.398Z,89.25
2018-03-16T11:27:30.651Z,88.77
2018-03-16T11:28:30.905Z,89.34
2018-03-16T11:29:31.156Z,88.77
2018-03-16T11:30:31.396Z,89.25
2018-03-16T11:31:31.670Z,89.25
2018-03-16T11:32:31.892Z,89.43
2018-03-16T11:33:32.140Z,89.43
2018-03-16T11:34:32.381Z,89.53
2018-03-16T11:35:32.638Z,89.91
2018-03-16T11:36:32.905Z,88.87
2018-03-16T11:37:33.155Z,88.77
2018-03-16T11:38:33.398Z,90.10
2018-03-16T11:39:33.646Z,90.10
2018-03-16T11:40:33.885Z,90.10
2018-03-16T11:41:34.156Z,89.20
2018-03-16T11:42:34.401Z,88.68
2018-03-16T11:43:34.643Z,88.54
2018-03-16T11:44:34.902Z,89.20
2018-03-16T11:45:35.199Z,88.73
2018-03-16T11:46:35.417Z,88.54
2018-03-16T11:47:35.632Z,88.54
2018-03-16T11:48:35.887Z,89.01
2018-03-16T11:49:36.125Z,89.96
2018-03-16T11:50:36.370Z,89.96
2018-03-16T11:51:36.649Z,91.57
2018-03-16T11:52:36.890Z,91.28
2018-03-16T11:53:37.150Z,90.05
2018-03-16T11:54:37.383Z,90.10
2018-03-16T11:55:37.647Z,89.48
2018-03-16T11:56:37.892Z,89.25
2018-03-16T11:57:38.138Z,89.43
2018-03-16T11:58:38.377Z,89.81
2018-03-16T11:59:39.452Z,90.38
2018-03-16T12:00:38.977Z,90.95
2018-03-16T12:01:39.237Z,91.71
2018-03-16T12:02:39.459Z,91.71
2018-03-16T12:03:39.797Z,91.05
2018-03-16T12:04:40.100Z,89.72
2018-03-16T12:05:40.271Z,89.06
2018-03-16T12:06:40.529Z,89.62
2018-03-16T12:07:40.787Z,90.48
2018-03-16T12:08:41.013Z,90.76
2018-03-16T12:09:41.309Z,90.19
2018-03-16T12:10:41.501Z,88.39
2018-03-16T12:11:41.763Z,88.39
2018-03-16T12:12:41.993Z,88.35
2018-03-16T12:13:42.323Z,88.82
2018-03-16T12:14:42.521Z,89.39
2018-03-16T12:15:42.761Z,89.20
2018-03-16T12:16:43.031Z,89.01
2018-03-16T12:17:43.296Z,89.86
2018-03-16T12:18:43.543Z,89.67
2018-03-16T12:19:43.773Z,90.24
2018-03-16T12:20:44.066Z,89.96
2018-03-16T12:21:44.395Z,89.77
2018-03-16T12:22:44.622Z,90.76
2018-03-16T12:23:44.866Z,90.48
2018-03-16T12:24:45.064Z,90.57
2018-03-16T12:25:45.307Z,90.95
2018-03-16T12:26:45.557Z,91.42
2018-03-16T12:27:45.817Z,91.71
2018-03-16T12:28:49.886Z,91.61
2018-03-16T12:29:46.345Z,91.33
2018-03-16T12:30:46.646Z,89.72
2018-03-16T12:31:46.875Z,88.68
2018-03-16T12:32:47.123Z,88.77
2018-03-16T12:33:47.348Z,89.72
2018-03-16T12:34:47.590Z,88.48
2018-03-16T12:35:47.862Z,87.82
2018-03-16T12:36:48.099Z,88.20
2018-03-16T12:37:48.330Z,88.48
2018-03-16T12:38:48.600Z,88.87
2018-03-16T12:39:48.821Z,89.72
2018-03-16T12:40:49.128Z,89.62
2018-03-16T12:41:49.416Z,89.81
2018-03-16T12:42:49.634Z,89.81
2018-03-16T12:43:49.941Z,88.20
2018-03-16T12:44:50.127Z,87.45
2018-03-16T12:45:50.395Z,87.82
2018-03-16T12:46:50.618Z,88.77
2018-03-16T12:47:50.867Z,88.01
2018-03-16T12:48:51.134Z,87.35
2018-03-16T12:49:51.352Z,88.01
2018-03-16T12:50:51.600Z,88.01
2018-03-16T12:51:51.856Z,88.77
2018-03-16T12:52:52.113Z,89.43
2018-03-16T12:53:52.335Z,90.10
2018-03-16T12:54:52.559Z,89.72
2018-03-16T12:55:52.818Z,89.81
2018-03-16T12:56:53.050Z,89.91
2018-03-16T12:57:53.307Z,88.77
2018-03-16T12:58:53.569Z,88.10